createdAt,value
2023-03-02T00:01:46.794Z,19.88
2023-03-02T00:04:20.788Z,27.88
2023-03-02T00:06:49.660Z,23.77
2023-03-02T00:09:18.334Z,24.25
2023-03-02T00:11:47.829Z,27.90
2023-03-02T00:14:15.559Z,27.08
2023-03-02T00:16:43.350Z,31.67
2023-03-02T00:19:11.065Z,29.70
2023-03-02T00:21:38.824Z,35.17
2023-03-02T00:24:07.456Z,30.00
2023-03-02T00:26:35.442Z,33.03
2023-03-02T00:29:05.666Z,33.03
2023-03-02T00:31:33.504Z,33.53
2023-03-02T00:34:01.380Z,39.33
2023-03-02T00:36:29.089Z,38.10
2023-03-02T00:38:57.455Z,37.58
2023-03-02T00:41:25.229Z,37.97
2023-03-02T00:43:53.000Z,40.33
2023-03-02T00:46:24.876Z,38.65
2023-03-02T00:48:53.388Z,41.08
2023-03-02T00:51:21.462Z,41.50
2023-03-02T00:53:49.249Z,42.92
2023-03-02T00:56:16.991Z,39.58
2023-03-02T00:58:44.674Z,44.67
2023-03-02T01:01:15.896Z,47.63
2023-03-02T01:03:48.197Z,47.83
2023-03-02T01:06:17.332Z,57.55
2023-03-02T01:08:45.729Z,51.33
2023-03-02T01:11:15.065Z,47.88
2023-03-02T01:13:42.971Z,52.85
2023-03-02T01:16:11.837Z,52.72
2023-03-02T01:18:39.866Z,54.28
2023-03-02T01:21:12.011Z,51.45
2023-03-02T01:23:39.784Z,55.10
2023-03-02T01:26:08.213Z,56.35
2023-03-02T01:28:35.964Z,57.05
2023-03-02T01:31:04.670Z,60.38
2023-03-02T01:33:32.819Z,57.58
2023-03-02T01:36:00.887Z,60.13
2023-03-02T01:38:30.143Z,61.67
2023-03-02T01:40:57.972Z,62.42
2023-03-02T01:43:25.774Z,58.45
2023-03-02T01:45:58.170Z,61.63
2023-03-02T01:48:30.573Z,65.32
2023-03-02T01:50:59.435Z,70.70
2023-03-02T01:53:32.268Z,64.75
2023-03-02T01:56:01.388Z,69.87
2023-03-02T01:58:32.759Z,63.13
2023-03-02T02:01:01.673Z,63.22
2023-03-02T02:03:31.771Z,72.00
2023-03-02T02:06:10.434Z,63.70
2023-03-02T02:08:40.119Z,67.72
2023-03-02T02:11:08.359Z,65.13
2023-03-02T02:13:36.324Z,64.90
2023-03-02T02:16:04.922Z,74.15
2023-03-02T02:18:32.718Z,71.03
2023-03-02T02:21:00.588Z,69.25
2023-03-02T02:23:32.745Z,70.07
2023-03-02T02:26:08.693Z,70.85
2023-03-02T02:28:41.821Z,72.28
2023-03-02T02:31:15.618Z,68.00
2023-03-02T02:33:46.879Z,72.35
2023-03-02T02:36:19.633Z,73.97
2023-03-02T02:38:51.040Z,72.10
2023-03-02T02:41:22.913Z,77.53
2023-03-02T02:43:51.446Z,74.65
2023-03-02T02:46:19.543Z,69.20
2023-03-02T02:48:47.388Z,74.25
2023-03-02T02:51:30.598Z,76.60
2023-03-02T02:54:00.588Z,79.82
2023-03-02T02:56:34.582Z,77.07
2023-03-02T02:59:07.982Z,74.78
2023-03-02T03:01:37.505Z,80.72
2023-03-02T03:04:07.479Z,77.40
2023-03-02T03:06:42.467Z,75.88
2023-03-02T03:09:11.407Z,73.75
2023-03-02T03:11:44.449Z,79.65
2023-03-02T03:14:15.342Z,73.97
2023-03-02T03:16:45.818Z,66.05
2023-03-02T03:19:19.239Z,68.25
2023-03-02T03:21:50.519Z,66.00
2023-03-02T03:24:18.820Z,73.68
2023-03-02T03:26:47.999Z,70.22
2023-03-02T03:29:18.131Z,70.50
2023-03-02T03:31:45.883Z,66.68
2023-03-02T03:34:13.734Z,66.47
2023-03-02T03:36:43.259Z,64.30
2023-03-02T03:39:12.676Z,70.07
2023-03-02T03:41:40.899Z,68.57
2023-03-02T03:44:10.874Z,62.88
2023-03-02T03:46:38.994Z,61.88
2023-03-02T03:49:07.099Z,68.95
2023-03-02T03:51:35.301Z,73.78
2023-03-02T03:54:04.064Z,62.20
2023-03-02T03:56:34.640Z,66.47
2023-03-02T03:59:08.611Z,67.90
2023-03-02T04:01:40.120Z,67.90
2023-03-02T04:04:10.354Z,73.85
2023-03-02T04:06:38.574Z,64.97
2023-03-02T04:09:07.052Z,70.13
2023-03-02T04:11:36.718Z,70.38
2023-03-02T04:14:05.493Z,65.28
2023-03-02T04:16:34.038Z,65.57
2023-03-02T04:19:04.725Z,67.65
2023-03-02T04:21:32.482Z,60.22
2023-03-02T04:24:00.167Z,67.57
2023-03-02T04:26:27.968Z,70.30
2023-03-02T04:28:55.768Z,66.10
2023-03-02T04:31:23.650Z,65.32
2023-03-02T04:33:51.469Z,63.40
2023-03-02T04:36:20.725Z,66.93
2023-03-02T04:38:48.872Z,62.17
2023-03-02T04:41:17.388Z,62.55
2023-03-02T04:43:45.172Z,59.92
2023-03-02T04:46:15.849Z,64.72
2023-03-02T04:48:43.610Z,60.95
2023-03-02T04:51:18.280Z,61.33
2023-03-02T04:53:47.414Z,61.70
2023-03-02T04:56:15.123Z,60.55
2023-03-02T04:58:42.889Z,58.25
2023-03-02T05:01:11.274Z,66.88
2023-03-02T05:03:39.170Z,59.55
2023-03-02T05:06:07.424Z,59.95
2023-03-02T05:08:35.807Z,65.13
2023-03-02T05:11:06.385Z,58.63
2023-03-02T05:13:34.647Z,54.75
2023-03-02T05:16:02.706Z,59.60
2023-03-02T05:18:31.202Z,57.00
2023-03-02T05:20:59.069Z,62.72
2023-03-02T05:23:28.601Z,60.53
2023-03-02T05:25:57.661Z,58.00
2023-03-02T05:28:27.416Z,58.50
2023-03-02T05:30:55.484Z,53.58
2023-03-02T05:33:23.516Z,61.33
2023-03-02T05:35:51.317Z,60.20
2023-03-02T05:38:19.147Z,53.63
2023-03-02T05:40:47.364Z,55.20
2023-03-02T05:43:18.889Z,55.08
2023-03-02T05:45:48.459Z,55.85
2023-03-02T05:48:16.786Z,51.90
2023-03-02T05:50:44.824Z,53.17
2023-03-02T05:53:12.625Z,56.25
2023-03-02T05:55:40.387Z,50.25
2023-03-02T05:58:09.752Z,53.38
2023-03-02T06:00:37.508Z,53.40
2023-03-02T06:03:06.772Z,55.58
2023-03-02T06:05:35.198Z,55.13
2023-03-02T06:08:03.291Z,54.78
2023-03-02T06:10:31.247Z,52.83
2023-03-02T06:12:59.033Z,57.22
2023-03-02T06:15:29.788Z,56.15
2023-03-02T06:17:57.667Z,57.90
2023-03-02T06:20:26.965Z,59.30
2023-03-02T06:22:54.768Z,55.80
2023-03-02T06:25:24.792Z,51.95
2023-03-02T06:27:53.852Z,57.08
2023-03-02T06:30:24.746Z,52.30
2023-03-02T06:32:52.943Z,59.60
2023-03-02T06:35:21.243Z,53.20
2023-03-02T06:37:50.673Z,55.92
2023-03-02T06:40:18.869Z,55.08
2023-03-02T06:42:46.661Z,54.17
2023-03-02T06:45:14.588Z,55.75
2023-03-02T06:47:42.531Z,58.58
2023-03-02T06:50:11.946Z,54.83
2023-03-02T06:52:39.919Z,53.42
2023-03-02T06:55:09.992Z,53.40
2023-03-02T06:57:37.805Z,66.43
2023-03-02T07:00:09.984Z,56.45
2023-03-02T07:02:38.401Z,57.15
2023-03-02T07:05:07.756Z,54.75
2023-03-02T07:07:35.539Z,59.55
2023-03-02T07:10:03.429Z,56.75
2023-03-02T07:12:32.861Z,62.47
2023-03-02T07:15:00.608Z,56.70
2023-03-02T07:17:28.342Z,56.28
2023-03-02T07:19:56.109Z,56.30
2023-03-02T07:22:23.846Z,62.10
2023-03-02T07:24:51.580Z,59.03
2023-03-02T07:27:19.351Z,57.97
2023-03-02T07:29:48.459Z,63.08
2023-03-02T07:32:16.226Z,60.55
2023-03-02T07:34:44.006Z,64.50
2023-03-02T07:37:11.755Z,61.13
2023-03-02T07:39:39.504Z,55.50
2023-03-02T07:42:08.890Z,65.25
2023-03-02T07:44:36.704Z,57.80
2023-03-02T07:47:06.376Z,56.47
2023-03-02T07:49:35.349Z,58.13
2023-03-02T07:52:03.527Z,63.65
2023-03-02T07:54:31.513Z,61.35
2023-03-02T07:56:59.630Z,62.25
2023-03-02T07:59:30.220Z,60.72
2023-03-02T08:01:58.644Z,59.80
2023-03-02T08:04:28.066Z,60.67
2023-03-02T08:06:55.835Z,59.85
2023-03-02T08:09:23.651Z,56.25
2023-03-02T08:11:51.429Z,53.60
2023-03-02T08:14:19.224Z,55.75
2023-03-02T08:16:47.034Z,56.25
2023-03-02T08:19:14.844Z,48.40
2023-03-02T08:21:44.189Z,47.03
2023-03-02T08:24:12.515Z,50.95
2023-03-02T08:26:40.698Z,53.72
2023-03-02T08:29:08.609Z,55.17
2023-03-02T08:31:36.717Z,49.97
2023-03-02T08:34:04.918Z,50.03
2023-03-02T08:36:33.079Z,50.03
2023-03-02T08:39:02.450Z,47.83
2023-03-02T08:41:30.802Z,46.88
2023-03-02T08:43:58.917Z,47.08
2023-03-02T08:46:26.722Z,44.85
2023-03-02T08:48:54.720Z,46.10
2023-03-02T08:51:24.626Z,44.22
2023-03-02T08:53:55.182Z,40.92
2023-03-02T08:56:26.051Z,44.08
2023-03-02T08:58:55.406Z,40.35
2023-03-02T09:01:25.496Z,37.58
2023-03-02T09:03:53.692Z,41.40
2023-03-02T09:06:21.665Z,38.92
2023-03-02T09:08:49.937Z,40.05
2023-03-02T09:11:18.108Z,35.65
2023-03-02T09:13:47.242Z,41.90
2023-03-02T09:16:15.505Z,40.97
2023-03-02T09:18:43.344Z,35.28
2023-03-02T09:21:11.129Z,37.08
2023-03-02T09:23:38.953Z,33.70
2023-03-02T09:26:06.948Z,38.47
2023-03-02T09:28:36.050Z,38.95
2023-03-02T09:31:08.006Z,32.15
2023-03-02T09:33:36.017Z,36.13
2023-03-02T09:36:07.550Z,30.65
2023-03-02T09:38:35.322Z,32.38
2023-03-02T09:41:23.936Z,30.90
2023-03-02T09:44:01.698Z,29.45
2023-03-02T09:46:35.641Z,28.08
2023-03-02T09:49:20.544Z,29.35
2023-03-02T09:51:59.715Z,29.55
2023-03-02T09:54:27.683Z,31.63
2023-03-02T09:56:57.894Z,27.13
2023-03-02T09:59:30.392Z,30.75
2023-03-02T10:02:06.266Z,29.27
2023-03-02T10:04:39.552Z,31.23
2023-03-02T10:07:15.191Z,29.17
2023-03-02T10:09:44.199Z,26.95
2023-03-02T10:12:36.915Z,25.73
2023-03-02T10:15:11.673Z,24.55
2023-03-02T10:17:54.311Z,23.75
2023-03-02T10:20:34.173Z,24.90
2023-03-02T10:23:11.684Z,22.92
2023-03-02T10:25:48.696Z,25.40
2023-03-02T10:28:20.595Z,29.23
2023-03-02T10:30:55.274Z,24.58
2023-03-02T10:33:24.904Z,28.20
2023-03-02T10:35:54.472Z,22.67
2023-03-02T10:38:24.436Z,25.80
2023-03-02T10:40:59.974Z,24.88
2023-03-02T10:43:32.750Z,23.30
2023-03-02T10:46:02.550Z,23.17
2023-03-02T10:48:31.936Z,23.70
2023-03-02T10:51:00.663Z,23.67
2023-03-02T10:53:29.126Z,23.90
2023-03-02T10:55:57.018Z,21.80
2023-03-02T10:58:30.381Z,21.33
2023-03-02T11:01:00.273Z,19.20
2023-03-02T11:03:28.581Z,26.30
2023-03-02T11:06:00.411Z,27.35
2023-03-02T11:08:29.357Z,22.92
2023-03-02T11:11:01.224Z,24.77
2023-03-02T11:13:32.298Z,24.85
2023-03-02T11:16:01.730Z,19.48
2023-03-02T11:18:34.089Z,21.73
2023-03-02T11:21:06.832Z,20.80
2023-03-02T11:23:42.165Z,24.20
2023-03-02T11:26:19.356Z,22.42
2023-03-02T11:28:52.653Z,28.00
2023-03-02T11:31:29.687Z,25.73
2023-03-02T11:34:17.896Z,24.90
2023-03-02T11:36:58.623Z,19.88
2023-03-02T11:39:33.184Z,22.70
2023-03-02T11:42:01.045Z,23.63
2023-03-02T11:44:29.832Z,20.50
2023-03-02T11:47:01.990Z,21.50
2023-03-02T11:49:40.715Z,26.35
2023-03-02T11:52:19.908Z,20.60
2023-03-02T11:54:53.951Z,20.08
2023-03-02T11:57:26.685Z,18.30
2023-03-02T11:59:56.098Z,20.95
2023-03-02T12:02:24.177Z,18.10
2023-03-02T12:05:03.064Z,24.13
2023-03-02T12:07:32.474Z,23.48
2023-03-02T12:10:03.220Z,19.52
2023-03-02T12:12:36.226Z,21.63
2023-03-02T12:15:04.515Z,20.53
2023-03-02T12:17:35.148Z,21.08
2023-03-02T12:20:24.455Z,20.58
2023-03-02T12:22:54.389Z,23.00
2023-03-02T12:25:40.453Z,23.13
2023-03-02T12:28:27.066Z,21.60
2023-03-02T12:31:03.754Z,25.33
2023-03-02T12:33:31.670Z,25.60
2023-03-02T12:36:06.598Z,27.30
2023-03-02T12:38:39.569Z,27.67
2023-03-02T12:41:27.527Z,28.27
2023-03-02T12:44:28.745Z,27.90
2023-03-02T12:46:57.485Z,23.58
2023-03-02T12:49:45.638Z,28.65
2023-03-02T12:52:24.160Z,26.80
2023-03-02T12:55:02.704Z,25.80
2023-03-02T12:57:31.066Z,25.15
2023-03-02T13:00:01.061Z,24.55
2023-03-02T13:02:30.699Z,25.20
2023-03-02T13:05:00.598Z,22.60
2023-03-02T13:07:35.487Z,22.95
2023-03-02T13:10:10.731Z,24.40
2023-03-02T13:12:45.150Z,23.60
2023-03-02T13:15:17.048Z,23.08
2023-03-02T13:17:45.455Z,25.63
2023-03-02T13:20:15.861Z,25.25
2023-03-02T13:22:43.840Z,21.95
2023-03-02T13:25:23.682Z,23.55
2023-03-02T13:27:56.005Z,23.92
2023-03-02T13:30:27.243Z,24.30
2023-03-02T13:33:01.022Z,25.63
2023-03-02T13:35:31.442Z,25.02
2023-03-02T13:38:03.090Z,24.52
2023-03-02T13:40:44.827Z,23.73
2023-03-02T13:43:32.274Z,24.27
2023-03-02T13:46:01.612Z,22.92
2023-03-02T13:48:30.585Z,25.00
2023-03-02T13:51:00.454Z,26.77
2023-03-02T13:53:31.053Z,24.98
2023-03-02T13:56:01.274Z,28.27
2023-03-02T13:58:30.372Z,26.83
2023-03-02T14:00:58.408Z,21.55
2023-03-02T14:03:28.259Z,19.45
2023-03-02T14:05:57.699Z,22.27
2023-03-02T14:08:25.568Z,27.23
2023-03-02T14:10:57.236Z,23.95
2023-03-02T14:13:31.499Z,20.38
2023-03-02T14:15:59.415Z,24.05
2023-03-02T14:18:37.125Z,28.65
2023-03-02T14:21:05.778Z,26.85
2023-03-02T14:23:33.784Z,26.00
2023-03-02T14:26:01.703Z,22.98
2023-03-02T14:28:35.292Z,25.45
2023-03-02T14:31:03.168Z,31.05
2023-03-02T14:33:31.020Z,30.60
2023-03-02T14:35:59.725Z,29.70
2023-03-02T14:38:28.822Z,33.13
2023-03-02T14:40:56.671Z,30.42
2023-03-02T14:43:25.282Z,32.90
2023-03-02T14:45:54.580Z,33.25
2023-03-02T14:48:22.502Z,28.70
2023-03-02T14:50:52.449Z,27.05
2023-03-02T14:53:27.369Z,28.48
2023-03-02T14:55:55.197Z,26.35
2023-03-02T14:58:30.649Z,31.30
2023-03-02T15:00:59.790Z,31.25
2023-03-02T15:03:28.175Z,34.28
2023-03-02T15:06:01.420Z,26.65
2023-03-02T15:10:58.100Z,32.13
2023-03-02T15:13:25.841Z,28.88
2023-03-02T15:15:53.704Z,33.78
2023-03-02T15:18:22.859Z,32.15
2023-03-02T15:20:50.565Z,32.25
2023-03-02T15:23:18.280Z,28.92
2023-03-02T15:25:46.042Z,30.60
2023-03-02T15:28:13.849Z,34.97
2023-03-02T15:30:41.745Z,37.10
2023-03-02T15:33:09.544Z,33.58
2023-03-02T15:35:39.660Z,30.65
2023-03-02T15:38:07.858Z,31.98
2023-03-02T15:40:37.089Z,30.10
2023-03-02T15:43:05.007Z,29.17
2023-03-02T15:45:32.789Z,30.60
2023-03-02T15:48:00.629Z,32.30
2023-03-02T15:50:28.399Z,34.45
2023-03-02T15:52:58.405Z,29.45
2023-03-02T15:55:27.112Z,28.17
2023-03-02T15:57:58.016Z,28.42
2023-03-02T16:00:26.173Z,33.03
2023-03-02T16:02:54.025Z,31.65
2023-03-02T16:05:21.868Z,34.33
2023-03-02T16:07:49.638Z,30.52
2023-03-02T16:10:20.740Z,32.53
2023-03-02T16:12:48.477Z,32.35
2023-03-02T16:15:16.241Z,31.52
2023-03-02T16:17:44.116Z,30.77
2023-03-02T16:20:13.139Z,33.95
2023-03-02T16:22:40.859Z,32.60
2023-03-02T16:25:09.250Z,31.88
2023-03-02T16:27:38.447Z,33.85
2023-03-02T16:30:07.112Z,36.10
2023-03-02T16:32:34.944Z,32.05
2023-03-02T16:35:02.653Z,32.70
2023-03-02T16:37:30.470Z,30.20
2023-03-02T16:39:58.262Z,32.08
2023-03-02T16:42:26.314Z,34.08
2023-03-02T16:44:55.459Z,31.63
2023-03-02T16:47:23.230Z,35.10
2023-03-02T16:49:51.066Z,33.22
2023-03-02T16:52:18.829Z,30.77
2023-03-02T16:54:46.646Z,33.83
2023-03-02T16:57:14.387Z,36.85
2023-03-02T16:59:42.347Z,34.97
2023-03-02T17:02:12.611Z,39.35
2023-03-02T17:04:40.609Z,30.85
2023-03-02T17:07:09.404Z,32.53
2023-03-02T17:09:41.370Z,31.10
2023-03-02T17:12:09.388Z,33.53
2023-03-02T17:14:37.155Z,33.38
2023-03-02T17:17:04.999Z,33.60
2023-03-02T17:19:34.228Z,31.65
2023-03-02T17:22:03.212Z,31.60
2023-03-02T17:24:31.522Z,34.00
2023-03-02T17:26:59.250Z,30.48
2023-03-02T17:29:27.076Z,29.75
2023-03-02T17:31:54.984Z,28.77
2023-03-02T17:34:23.007Z,31.58
2023-03-02T17:36:52.111Z,32.92
2023-03-02T17:39:19.870Z,32.00
2023-03-02T17:41:50.145Z,29.60
2023-03-02T17:44:17.891Z,29.25
2023-03-02T17:46:46.559Z,28.33
2023-03-02T17:49:14.660Z,30.30
2023-03-02T17:51:42.421Z,26.70
2023-03-02T17:54:12.776Z,25.48
2023-03-02T17:56:40.580Z,30.60
2023-03-02T17:59:08.380Z,27.08
2023-03-02T18:01:36.453Z,28.48
2023-03-02T18:04:04.911Z,27.33
2023-03-02T18:06:32.931Z,24.75
2023-03-02T18:09:00.785Z,26.15
2023-03-02T18:11:30.103Z,28.25
2023-03-02T18:13:59.148Z,26.73
2023-03-02T18:16:29.209Z,26.75
2023-03-02T18:18:57.580Z,28.85
2023-03-02T18:21:25.377Z,30.10
2023-03-02T18:23:53.560Z,31.35
2023-03-02T18:26:22.006Z,33.13
2023-03-02T18:28:51.447Z,27.42
2023-03-02T18:31:20.201Z,28.77
2023-03-02T18:33:48.626Z,29.58
2023-03-02T18:36:16.811Z,30.33
2023-03-02T18:38:44.659Z,32.05
2023-03-02T18:41:13.834Z,31.60
2023-03-02T18:43:43.211Z,31.60
2023-03-02T18:46:19.206Z,34.42
2023-03-02T18:48:47.460Z,33.33
2023-03-02T18:51:17.110Z,33.42
2023-03-02T18:53:46.082Z,32.50
2023-03-02T18:56:14.189Z,33.35
2023-03-02T18:58:42.413Z,31.77
2023-03-02T19:01:10.443Z,33.95
2023-03-02T19:03:41.928Z,35.13
2023-03-02T19:06:10.071Z,31.63
2023-03-02T19:08:38.079Z,33.72
2023-03-02T19:11:06.598Z,31.13
2023-03-02T19:13:34.415Z,33.00
2023-03-02T19:16:02.957Z,31.60
2023-03-02T19:18:34.367Z,31.55
2023-03-02T19:21:04.943Z,34.25
2023-03-02T19:23:33.184Z,38.95
2023-03-02T19:26:01.030Z,32.95
2023-03-02T19:28:28.826Z,29.73
2023-03-02T19:30:56.579Z,27.58
2023-03-02T19:33:24.904Z,29.98
2023-03-02T19:35:52.784Z,30.95
2023-03-02T19:38:22.730Z,32.88
2023-03-02T19:40:52.118Z,36.08
2023-03-02T19:43:20.372Z,33.92
2023-03-02T19:45:48.240Z,33.35
2023-03-02T19:48:16.200Z,32.50
2023-03-02T19:50:45.386Z,31.58
2023-03-02T19:53:13.562Z,33.65
2023-03-02T19:55:43.571Z,27.20
2023-03-02T19:58:17.270Z,30.73
2023-03-02T20:03:14.078Z,30.60
2023-03-02T20:05:41.802Z,29.08
2023-03-02T20:08:09.849Z,37.90
2023-03-02T20:10:40.657Z,28.70
2023-03-02T20:13:10.669Z,28.98
2023-03-02T20:15:40.412Z,31.02
2023-03-02T20:18:10.918Z,27.77
2023-03-02T20:20:38.721Z,31.90
2023-03-02T20:23:06.872Z,33.85
2023-03-02T20:25:36.461Z,29.02
2023-03-02T20:28:05.808Z,31.95
2023-03-02T20:30:38.603Z,29.92
2023-03-02T20:33:08.400Z,22.65
2023-03-02T20:35:40.898Z,30.98
2023-03-02T20:38:11.206Z,36.20
2023-03-02T20:40:39.047Z,35.53
2023-03-02T20:43:07.247Z,34.88
2023-03-02T20:45:40.869Z,30.05
2023-03-02T20:48:09.298Z,34.30
2023-03-02T20:50:40.476Z,33.25
2023-03-02T20:53:11.567Z,29.55
2023-03-02T20:55:39.781Z,32.42
2023-03-02T20:58:07.637Z,35.80
2023-03-02T21:00:38.157Z,36.75
2023-03-02T21:03:07.233Z,35.33
2023-03-02T21:05:37.150Z,35.92
2023-03-02T21:08:05.851Z,33.85
2023-03-02T21:10:37.982Z,36.20
2023-03-02T21:13:07.629Z,39.05
2023-03-02T21:15:37.409Z,36.17
2023-03-02T21:18:05.649Z,41.30
2023-03-02T21:20:38.154Z,32.65
2023-03-02T21:23:05.967Z,31.35
2023-03-02T21:25:34.496Z,35.90
2023-03-02T21:28:02.298Z,35.80
2023-03-02T21:30:34.066Z,35.00
2023-03-02T21:33:03.704Z,33.53
2023-03-02T21:35:34.296Z,32.13
2023-03-02T21:38:05.044Z,29.63
2023-03-02T21:40:37.582Z,29.08
2023-03-02T21:43:06.812Z,36.33
2023-03-02T21:45:35.913Z,29.35
2023-03-02T21:48:05.546Z,33.33
2023-03-02T21:50:36.681Z,31.55
2023-03-02T21:53:05.257Z,30.55
2023-03-02T21:55:33.620Z,34.05
2023-03-02T21:58:01.944Z,31.42
2023-03-02T22:00:32.660Z,32.38
2023-03-02T22:03:01.170Z,32.38
2023-03-02T22:05:30.525Z,26.77
2023-03-02T22:07:58.612Z,30.40
2023-03-02T22:10:31.859Z,35.88
2023-03-02T22:13:15.632Z,31.90
2023-03-02T22:15:43.401Z,29.10
2023-03-02T22:18:12.980Z,29.15
2023-03-02T22:20:45.092Z,34.92
2023-03-02T22:23:14.523Z,30.90
2023-03-02T22:25:44.289Z,31.13
2023-03-02T22:28:17.967Z,32.63
2023-03-02T22:30:46.381Z,29.42
2023-03-02T22:33:19.883Z,29.45
2023-03-02T22:35:49.680Z,29.23
2023-03-02T22:38:25.281Z,30.92
2023-03-02T22:40:53.865Z,27.27
2023-03-02T22:43:25.951Z,27.95
2023-03-02T22:45:54.266Z,25.70
2023-03-02T22:48:25.559Z,26.17
2023-03-02T22:50:55.042Z,23.88
2023-03-02T22:53:30.045Z,26.23
2023-03-02T22:56:00.437Z,25.75
2023-03-02T22:58:46.039Z,25.25
2023-03-02T23:01:23.071Z,23.05
2023-03-02T23:03:53.272Z,22.00
2023-03-02T23:06:30.778Z,22.15
2023-03-02T23:09:00.393Z,20.13
2023-03-02T23:11:29.635Z,22.23
2023-03-02T23:13:57.489Z,21.25
2023-03-02T23:16:27.110Z,18.42
2023-03-02T23:18:57.132Z,20.40
2023-03-02T23:21:28.972Z,25.48
2023-03-02T23:23:56.821Z,18.67
2023-03-02T23:26:24.624Z,16.67
2023-03-02T23:28:52.564Z,17.92
2023-03-02T23:31:21.234Z,15.52
2023-03-02T23:33:49.412Z,16.88
2023-03-02T23:36:17.701Z,17.95
2023-03-02T23:38:46.826Z,15.40
2023-03-02T23:41:15.078Z,14.60
2023-03-02T23:43:42.869Z,14.23
2023-03-02T23:46:13.999Z,13.50
2023-03-02T23:48:41.960Z,14.30
2023-03-02T23:51:09.782Z,12.50
2023-03-02T23:53:37.624Z,15.95
2023-03-02T23:56:07.842Z,13.73
2023-03-02T23:58:35.585Z,13.88
